Time;durP1;ratioP1;P1;durP2;ratioP2;P2;SDS_P1;SDS_P2;PMS_P1;PMS_P2;Temp;Humidity;BMP_temperature;BMP_pressure;BME280_temperature;BME280_humidity;BME280_pressure;Samples;Min_cycle;Max_cycle;Signal;HPM_P1;HPM_P2
2022/12/09 00:01:34;;;;;;;2.50;1.40;;;19.10;58.40;;;;;;5027850;28;20029;-67
2022/12/09 00:03:59;;;;;;;2.22;1.30;;;19.10;58.40;;;;;;5058132;28;20422;-68
2022/12/09 00:06:27;;;;;;;1.63;1.23;;;19.10;58.40;;;;;;5051756;28;20027;-69
2022/12/09 00:08:55;;;;;;;3.22;1.50;;;19.10;58.40;;;;;;5047876;28;20032;-67
2022/12/09 00:11:21;;;;;;;2.00;1.30;;;19.10;58.40;;;;;;5043965;28;20132;-67
2022/12/09 00:13:52;;;;;;;1.83;1.20;;;19.10;58.40;;;;;;5061864;28;20441;-67
2022/12/09 00:16:18;;;;;;;1.65;1.10;;;19.10;58.30;;;;;;5056890;28;20029;-67
2022/12/09 00:18:44;;;;;;;2.10;1.40;;;19.10;58.40;;;;;;5051363;28;20086;-67
2022/12/09 00:21:31;;;;;;;2.30;1.40;;;19.00;58.30;;;;;;5049522;28;20086;-68
2022/12/09 00:23:59;;;;;;;1.65;1.15;;;19.00;58.30;;;;;;5050513;28;20444;-67
2022/12/09 00:26:26;;;;;;;2.10;1.20;;;19.00;58.40;;;;;;5044902;28;20033;-68
2022/12/09 00:28:53;;;;;;;2.08;1.20;;;19.00;58.40;;;;;;5040757;28;20025;-68
2022/12/09 00:31:25;;;;;;;1.98;1.27;;;19.00;58.40;;;;;;5033858;28;20029;-68
2022/12/09 00:33:54;;;;;;;1.65;1.20;;;19.00;58.40;;;;;;5054930;28;20083;-67
2022/12/09 00:36:21;;;;;;;1.58;1.10;;;19.00;58.40;;;;;;5044184;28;20363;-67
2022/12/09 00:38:47;;;;;;;1.92;1.20;;;19.00;58.40;;;;;;5056600;28;20508;-67
2022/12/09 00:41:14;;;;;;;2.38;1.45;;;19.00;58.40;;;;;;5053573;28;20025;-68
2022/12/09 00:43:41;;;;;;;1.67;1.20;;;19.00;58.40;;;;;;5045935;28;20104;-67
2022/12/09 00:46:06;;;;;;;2.28;1.38;;;19.00;58.40;;;;;;5049943;28;20033;-68
2022/12/09 00:48:37;;;;;;;1.63;1.20;;;19.00;58.40;;;;;;5047441;28;20403;-68
2022/12/09 00:51:04;;;;;;;1.73;1.15;;;19.00;58.40;;;;;;5051106;28;20099;-67
2022/12/09 00:53:30;;;;;;;1.80;1.13;;;18.90;58.30;;;;;;5042123;28;20017;-68
2022/12/09 00:55:56;;;;;;;2.63;1.40;;;18.90;58.30;;;;;;5054324;28;20051;-68
2022/12/09 00:58:22;;;;;;;2.17;1.45;;;18.90;58.40;;;;;;5040264;28;20028;-68
2022/12/09 01:00:49;;;;;;;2.08;1.30;;;19.00;58.50;;;;;;5050762;28;20470;-67
2022/12/09 01:03:16;;;;;;;1.80;1.15;;;18.90;58.50;;;;;;5046528;28;20044;-67
2022/12/09 01:05:42;;;;;;;1.70;1.13;;;18.90;58.50;;;;;;5049983;28;20647;-68
2022/12/09 01:08:09;;;;;;;2.30;1.50;;;18.90;58.40;;;;;;5036468;28;20380;-69
2022/12/09 01:10:36;;;;;;;1.80;1.20;;;18.90;58.40;;;;;;5052270;28;20032;-67
2022/12/09 01:13:02;;;;;;;2.05;1.40;;;18.90;58.50;;;;;;5053745;28;20016;-67
2022/12/09 01:15:29;;;;;;;1.75;1.15;;;18.90;58.40;;;;;;5042325;28;20039;-67
2022/12/09 01:17:55;;;;;;;1.88;1.30;;;18.90;58.50;;;;;;5040347;28;20029;-68
2022/12/09 01:20:21;;;;;;;1.52;1.13;;;18.90;58.50;;;;;;5055646;28;20166;-67
2022/12/09 01:22:46;;;;;;;1.73;1.15;;;18.90;58.50;;;;;;5055751;28;20063;-68
2022/12/09 01:25:12;;;;;;;1.42;1.00;;;18.80;58.40;;;;;;5054831;28;20040;-67
2022/12/09 01:27:38;;;;;;;1.50;1.10;;;18.90;58.50;;;;;;5052015;28;20021;-67
2022/12/09 01:30:06;;;;;;;2.03;1.20;;;18.90;58.50;;;;;;5056338;28;20029;-67
2022/12/09 01:32:31;;;;;;;1.30;1.02;;;18.90;58.50;;;;;;5056204;28;20048;-66
2022/12/09 01:34:57;;;;;;;2.13;1.40;;;18.80;58.40;;;;;;5057986;28;20075;-67
2022/12/09 01:37:23;;;;;;;2.30;1.27;;;18.80;58.40;;;;;;5046554;28;20140;-67
2022/12/09 01:39:48;;;;;;;1.58;1.10;;;18.80;58.40;;;;;;5045632;28;20029;-66
2022/12/09 01:42:23;;;;;;;2.10;1.30;;;18.80;58.40;;;;;;5038516;28;20124;-67
2022/12/09 01:45:29;;;;;;;2.22;1.40;;;18.80;58.40;;;;;;5054813;28;20037;-68
2022/12/09 01:48:01;;;;;;;1.40;1.17;;;18.80;58.40;;;;;;5053163;28;20055;-67
2022/12/09 01:50:28;;;;;;;1.73;1.20;;;18.80;58.40;;;;;;5046008;28;20488;-66
2022/12/09 01:52:55;;;;;;;1.77;1.20;;;18.80;58.40;;;;;;5047674;28;20021;-67
2022/12/09 01:55:20;;;;;;;1.83;1.10;;;18.80;58.40;;;;;;5032743;28;20119;-66
2022/12/09 01:57:47;;;;;;;1.52;1.15;;;18.80;58.50;;;;;;5057571;28;20111;-67
2022/12/09 02:00:13;;;;;;;2.00;1.23;;;18.80;58.40;;;;;;5044696;28;20029;-67
2022/12/09 02:02:40;;;;;;;2.10;1.27;;;18.80;58.50;;;;;;5051506;28;20497;-67
2022/12/09 02:05:06;;;;;;;1.38;1.10;;;18.80;58.40;;;;;;5057840;28;20036;-68
2022/12/09 02:07:33;;;;;;;1.73;1.27;;;18.80;58.50;;;;;;5049457;28;20368;-67
2022/12/09 02:09:59;;;;;;;1.65;1.27;;;18.70;58.40;;;;;;5052723;28;20024;-68
2022/12/09 02:12:30;;;;;;;1.80;1.13;;;18.80;58.40;;;;;;5037030;28;20453;-69
2022/12/09 02:15:19;;;;;;;1.50;1.10;;;18.80;58.40;;;;;;5048964;28;20458;-66
2022/12/09 02:17:58;;;;;;;1.83;1.13;;;18.80;58.40;;;;;;5058130;28;20078;-66
2022/12/09 02:20:42;;;;;;;1.58;1.20;;;18.80;58.40;;;;;;5057465;28;20047;-67
2022/12/09 02:23:15;;;;;;;1.50;1.10;;;18.80;58.40;;;;;;5045932;28;20036;-68
2022/12/09 02:25:54;;;;;;;2.75;1.35;;;18.70;58.40;;;;;;5051436;28;20056;-68
2022/12/09 02:28:39;;;;;;;1.60;1.20;;;18.70;58.40;;;;;;5047864;28;20036;-67
2022/12/09 02:31:14;;;;;;;1.83;1.23;;;18.70;58.40;;;;;;5045873;28;20496;-67
2022/12/09 02:34:01;;;;;;;1.42;1.10;;;18.70;58.40;;;;;;5062413;28;20021;-69
2022/12/09 02:36:33;;;;;;;1.35;1.10;;;18.70;58.30;;;;;;5058226;28;20027;-68
2022/12/09 02:38:59;;;;;;;2.13;1.20;;;18.70;58.40;;;;;;5047121;28;20100;-68
2022/12/09 02:41:28;;;;;;;1.80;1.30;;;18.70;58.40;;;;;;5039494;28;20117;-67
2022/12/09 02:43:58;;;;;;;1.93;1.30;;;18.70;58.40;;;;;;5049021;28;20482;-69
2022/12/09 02:46:26;;;;;;;1.63;1.20;;;18.70;58.40;;;;;;5048287;28;20392;-67
2022/12/09 02:48:54;;;;;;;2.17;1.23;;;18.70;58.40;;;;;;5040261;28;20087;-68
2022/12/09 02:51:22;;;;;;;2.08;1.13;;;18.70;58.40;;;;;;5049906;28;20036;-67
2022/12/09 02:53:53;;;;;;;2.55;1.38;;;18.70;58.40;;;;;;5055970;28;20025;-69
2022/12/09 02:56:20;;;;;;;1.83;1.20;;;18.70;58.40;;;;;;5057862;28;20028;-67
2022/12/09 02:58:47;;;;;;;3.35;1.27;;;18.70;58.40;;;;;;5048491;28;20049;-67
2022/12/09 03:01:35;;;;;;;2.13;1.40;;;18.60;58.30;;;;;;5036563;28;20124;-68
2022/12/09 03:04:02;;;;;;;1.83;1.30;;;18.60;58.30;;;;;;5052707;28;20052;-67
2022/12/09 03:06:34;;;;;;;1.63;1.25;;;18.60;58.30;;;;;;5054607;28;20032;-67
2022/12/09 03:09:18;;;;;;;2.15;1.40;;;18.60;58.50;;;;;;5052771;28;20472;-67
2022/12/09 03:11:46;;;;;;;1.83;1.25;;;18.60;58.40;;;;;;5040357;28;20497;-67
2022/12/09 03:14:17;;;;;;;2.10;1.30;;;18.60;58.40;;;;;;5060065;28;20067;-67
2022/12/09 03:16:55;;;;;;;2.30;1.40;;;18.60;58.40;;;;;;5047972;28;20479;-66
2022/12/09 03:19:39;;;;;;;2.08;1.40;;;18.60;58.40;;;;;;5040630;28;20048;-68
2022/12/09 03:22:10;;;;;;;2.00;1.40;;;18.60;58.40;;;;;;5060248;28;20420;-66
2022/12/09 03:24:40;;;;;;;1.88;1.38;;;18.60;58.50;;;;;;5056902;28;20036;-68
2022/12/09 03:27:11;;;;;;;1.40;1.20;;;18.60;58.40;;;;;;5057253;28;20041;-67
2022/12/09 03:29:41;;;;;;;1.75;1.30;;;18.60;58.40;;;;;;5059338;28;20518;-67
2022/12/09 03:32:09;;;;;;;2.05;1.33;;;18.60;58.40;;;;;;5051798;28;20060;-67
2022/12/09 03:34:38;;;;;;;2.08;1.40;;;18.60;58.50;;;;;;5048812;28;20018;-67
2022/12/09 03:37:05;;;;;;;2.45;1.63;;;18.60;58.50;;;;;;5041118;28;20025;-67
2022/12/09 03:39:35;;;;;;;1.73;1.27;;;18.60;58.50;;;;;;5047547;28;20043;-67
2022/12/09 03:42:05;;;;;;;2.13;1.42;;;18.50;58.40;;;;;;5038031;28;20501;-67
2022/12/09 03:44:46;;;;;;;1.65;1.20;;;18.60;58.50;;;;;;5050762;28;20108;-67
2022/12/09 03:47:12;;;;;;;1.77;1.35;;;18.50;58.50;;;;;;5030969;28;20086;-68
2022/12/09 03:49:38;;;;;;;1.77;1.20;;;18.60;58.50;;;;;;5050159;28;20108;-67
2022/12/09 03:52:23;;;;;;;1.90;1.40;;;18.50;58.40;;;;;;5055026;28;20029;-67
2022/12/09 03:54:57;;;;;;;2.13;1.50;;;18.50;58.50;;;;;;5054635;28;20105;-67
2022/12/09 03:57:24;;;;;;;2.05;1.40;;;18.60;58.50;;;;;;5046524;28;20104;-67
2022/12/09 03:59:57;;;;;;;1.92;1.38;;;18.50;58.50;;;;;;5056581;28;20030;-66
2022/12/09 04:02:24;;;;;;;1.90;1.38;;;18.50;58.50;;;;;;5038695;28;20036;-67
2022/12/09 04:04:50;;;;;;;2.03;1.30;;;18.50;58.50;;;;;;5050793;28;20535;-67
2022/12/09 04:07:16;;;;;;;2.50;1.50;;;18.50;58.50;;;;;;5053071;28;20039;-67
2022/12/09 04:09:42;;;;;;;2.22;1.30;;;18.60;58.50;;;;;;5043241;28;20025;-67
2022/12/09 04:12:08;;;;;;;1.70;1.20;;;18.50;58.50;;;;;;5057253;28;20028;-68
2022/12/09 04:14:34;;;;;;;1.65;1.30;;;18.50;58.50;;;;;;5043664;28;20029;-68
2022/12/09 04:16:59;;;;;;;2.13;1.45;;;18.50;58.50;;;;;;5055676;28;20029;-68
2022/12/09 04:19:25;;;;;;;2.10;1.50;;;18.50;58.50;;;;;;5062745;28;20029;-68
2022/12/09 04:21:51;;;;;;;2.20;1.67;;;18.50;58.50;;;;;;5055799;28;20043;-66
2022/12/09 04:24:16;;;;;;;1.65;1.27;;;18.50;58.50;;;;;;5063142;28;20392;-67
2022/12/09 04:26:43;;;;;;;1.75;1.30;;;18.50;58.50;;;;;;5059259;28;20032;-67
2022/12/09 04:29:10;;;;;;;1.80;1.30;;;18.50;58.40;;;;;;5058816;28;20049;-67
2022/12/09 04:31:36;;;;;;;1.88;1.20;;;18.50;58.50;;;;;;5044961;28;20063;-68
2022/12/09 04:34:02;;;;;;;1.67;1.27;;;18.50;58.40;;;;;;5050894;28;20048;-67
2022/12/09 04:36:28;;;;;;;2.13;1.40;;;18.50;58.50;;;;;;5048158;28;20033;-66
2022/12/09 04:38:54;;;;;;;1.60;1.30;;;18.50;58.50;;;;;;5048137;28;20025;-67
2022/12/09 04:41:20;;;;;;;2.08;1.70;;;18.50;58.40;;;;;;5054451;28;20083;-68
2022/12/09 04:43:45;;;;;;;1.67;1.20;;;18.50;58.40;;;;;;5047694;28;20056;-66
2022/12/09 04:46:13;;;;;;;2.00;1.50;;;18.50;58.40;;;;;;5057055;28;20399;-67
2022/12/09 04:48:39;;;;;;;2.33;1.60;;;18.50;58.40;;;;;;5058568;28;20037;-66
2022/12/09 04:51:11;;;;;;;2.10;1.50;;;18.50;58.40;;;;;;5055265;28;20029;-66
2022/12/09 04:53:36;;;;;;;2.30;1.40;;;18.50;58.40;;;;;;5045934;28;20087;-67
2022/12/09 04:56:09;;;;;;;1.80;1.40;;;18.50;58.40;;;;;;5056608;28;20036;-68
2022/12/09 04:58:35;;;;;;;1.90;1.20;;;18.50;58.30;;;;;;5054454;28;20111;-66
2022/12/09 05:01:05;;;;;;;1.92;1.40;;;18.50;58.20;;;;;;5054225;28;20461;-67
2022/12/09 05:03:31;;;;;;;1.73;1.30;;;18.60;58.20;;;;;;5050213;28;20030;-67
2022/12/09 05:05:57;;;;;;;3.20;1.40;;;18.50;58.10;;;;;;5043730;28;20104;-68
2022/12/09 05:08:22;;;;;;;2.42;1.63;;;18.60;58.00;;;;;;5036317;28;20021;-67
2022/12/09 05:10:49;;;;;;;2.28;1.50;;;18.60;57.90;;;;;;5044645;28;20087;-68
2022/12/09 05:13:15;;;;;;;2.30;1.60;;;18.60;57.80;;;;;;5047091;28;20021;-68
2022/12/09 05:15:41;;;;;;;2.42;1.60;;;18.60;57.80;;;;;;5049344;28;20627;-68
2022/12/09 05:18:07;;;;;;;2.22;1.67;;;18.60;57.90;;;;;;5045059;28;20029;-67
2022/12/09 05:20:33;;;;;;;2.63;1.70;;;18.60;57.90;;;;;;5046135;28;20058;-67
2022/12/09 05:22:58;;;;;;;2.17;1.40;;;18.60;58.00;;;;;;5047866;28;20026;-68
2022/12/09 05:25:24;;;;;;;2.90;1.70;;;18.60;58.00;;;;;;5047858;28;20044;-67
2022/12/09 05:27:49;;;;;;;2.40;1.60;;;18.60;58.00;;;;;;5035047;28;20397;-68
2022/12/09 05:30:15;;;;;;;2.28;1.60;;;18.60;58.00;;;;;;5056291;28;20029;-68
2022/12/09 05:32:41;;;;;;;2.38;1.60;;;18.60;58.00;;;;;;5048662;28;20035;-68
2022/12/09 05:35:07;;;;;;;2.53;1.63;;;18.60;58.00;;;;;;5054324;28;20032;-67
2022/12/09 05:37:33;;;;;;;2.88;1.80;;;18.60;58.00;;;;;;5056767;28;20124;-67
2022/12/09 05:39:58;;;;;;;1.77;1.40;;;18.60;58.00;;;;;;5032945;28;20060;-67
2022/12/09 05:42:24;;;;;;;2.30;1.52;;;18.60;58.30;;;;;;5031073;28;20392;-67
2022/12/09 05:44:49;;;;;;;2.20;1.60;;;18.60;58.10;;;;;;5046208;28;20044;-68
2022/12/09 05:47:15;;;;;;;2.75;1.70;;;18.60;58.00;;;;;;5053518;28;20030;-67
2022/12/09 05:49:41;;;;;;;2.85;1.83;;;18.60;58.10;;;;;;5045436;28;20056;-68
2022/12/09 05:52:06;;;;;;;2.92;2.05;;;18.60;58.10;;;;;;5042954;28;20409;-67
2022/12/09 05:54:32;;;;;;;2.38;1.70;;;18.60;58.10;;;;;;5041623;28;20489;-68
2022/12/09 05:56:59;;;;;;;3.00;1.80;;;18.60;58.10;;;;;;5033891;28;20036;-67
2022/12/09 05:59:25;;;;;;;2.65;1.85;;;18.60;58.20;;;;;;5045118;28;20069;-68
2022/12/09 06:01:51;;;;;;;3.15;1.90;;;18.60;58.20;;;;;;5051575;28;20032;-67
2022/12/09 06:04:16;;;;;;;2.63;1.77;;;18.60;58.20;;;;;;5056730;28;20615;-68
2022/12/09 06:06:42;;;;;;;2.88;2.00;;;18.60;58.20;;;;;;5058325;28;20531;-68
2022/12/09 06:09:10;;;;;;;2.85;1.90;;;18.60;58.20;;;;;;5049306;28;20070;-68
2022/12/09 06:11:37;;;;;;;3.65;2.05;;;18.60;58.20;;;;;;5045991;28;20017;-67
2022/12/09 06:14:03;;;;;;;3.95;2.10;;;18.60;58.20;;;;;;5052882;28;20369;-68
2022/12/09 06:16:28;;;;;;;4.28;2.28;;;18.60;58.20;;;;;;5054643;28;20032;-68
2022/12/09 06:18:54;;;;;;;4.03;2.28;;;18.60;58.10;;;;;;5064074;28;20546;-67
2022/12/09 06:21:21;;;;;;;4.32;2.30;;;18.60;58.10;;;;;;5055936;28;20064;-67
2022/12/09 06:23:47;;;;;;;3.53;2.20;;;18.60;58.10;;;;;;5059544;28;20086;-68
2022/12/09 06:26:22;;;;;;;3.58;2.35;;;18.60;58.10;;;;;;5051736;28;20033;-68
2022/12/09 06:28:48;;;;;;;3.92;2.38;;;18.60;58.10;;;;;;5054943;28;20059;-68
2022/12/09 06:31:14;;;;;;;3.88;2.50;;;18.60;58.00;;;;;;5052516;28;20025;-68
2022/12/09 06:33:40;;;;;;;4.03;2.50;;;18.60;58.10;;;;;;5050033;28;20025;-68
2022/12/09 06:36:06;;;;;;;4.35;2.40;;;18.60;58.00;;;;;;5041045;28;20040;-67
2022/12/09 06:38:32;;;;;;;4.22;2.40;;;18.60;58.00;;;;;;5052756;28;20025;-68
2022/12/09 06:40:58;;;;;;;5.40;2.40;;;18.60;58.00;;;;;;5056788;28;20094;-68
2022/12/09 06:43:23;;;;;;;5.10;2.75;;;18.60;58.00;;;;;;5047037;28;20025;-68
2022/12/09 06:45:49;;;;;;;4.63;2.60;;;18.60;58.00;;;;;;5048850;28;20033;-68
2022/12/09 06:48:15;;;;;;;5.15;3.20;;;18.60;58.00;;;;;;5032299;28;20021;-68
2022/12/09 06:50:40;;;;;;;5.18;2.80;;;18.60;58.00;;;;;;5049155;28;20017;-68
2022/12/09 06:53:06;;;;;;;3.85;2.70;;;18.60;58.00;;;;;;5058169;28;20021;-68
2022/12/09 06:55:32;;;;;;;4.15;2.80;;;18.60;57.90;;;;;;5059267;28;20084;-68
2022/12/09 06:57:58;;;;;;;5.78;3.13;;;18.60;57.90;;;;;;5057632;28;20029;-68
2022/12/09 07:00:24;;;;;;;4.55;2.78;;;18.60;57.90;;;;;;5053062;28;20036;-68
2022/12/09 07:02:51;;;;;;;5.30;3.20;;;18.60;57.90;;;;;;5059202;28;20059;-68
2022/12/09 07:05:17;;;;;;;4.93;3.00;;;18.60;57.90;;;;;;5059557;28;20527;-69
2022/12/09 07:07:42;;;;;;;5.30;3.22;;;18.60;57.90;;;;;;5043764;28;20021;-69
2022/12/09 07:10:09;;;;;;;6.80;3.92;;;18.60;57.90;;;;;;5048268;28;20602;-67
2022/12/09 07:12:34;;;;;;;5.47;3.33;;;18.60;57.80;;;;;;5062550;28;20048;-69
2022/12/09 07:15:00;;;;;;;5.05;3.10;;;18.60;57.80;;;;;;5053389;28;20029;-68
2022/12/09 07:17:26;;;;;;;5.20;3.17;;;18.60;57.80;;;;;;5050380;28;20158;-68
2022/12/09 07:19:51;;;;;;;6.57;3.60;;;18.60;57.80;;;;;;5055338;28;20035;-68
2022/12/09 07:22:17;;;;;;;4.60;2.95;;;18.60;57.80;;;;;;5050979;28;20047;-68
2022/12/09 07:24:43;;;;;;;5.22;3.15;;;18.60;57.80;;;;;;5030232;28;20025;-68
2022/12/09 07:27:13;;;;;;;5.03;3.13;;;18.60;57.80;;;;;;5045071;28;20041;-68
2022/12/09 07:29:39;;;;;;;5.68;3.38;;;18.60;57.80;;;;;;5052164;28;20047;-68
2022/12/09 07:32:05;;;;;;;5.20;3.30;;;18.60;57.80;;;;;;5046283;28;20064;-68
2022/12/09 07:34:30;;;;;;;4.82;3.22;;;18.60;57.80;;;;;;5033740;28;20022;-68
2022/12/09 07:36:56;;;;;;;6.43;3.55;;;18.60;57.80;;;;;;5060395;28;20033;-68
2022/12/09 07:39:22;;;;;;;5.97;3.47;;;18.60;57.80;;;;;;5056214;28;20028;-68
2022/12/09 07:41:55;;;;;;;5.60;3.30;;;18.60;57.80;;;;;;5039559;28;20025;-68
2022/12/09 07:44:22;;;;;;;5.50;3.50;;;18.60;57.80;;;;;;5041276;28;20076;-68
2022/12/09 07:46:48;;;;;;;5.25;3.33;;;18.60;57.70;;;;;;5053644;28;20056;-68
2022/12/09 07:49:14;;;;;;;5.18;3.15;;;18.60;57.70;;;;;;5053085;28;20032;-67
2022/12/09 07:51:40;;;;;;;5.50;3.40;;;18.60;57.70;;;;;;5037251;28;20124;-68
2022/12/09 07:54:08;;;;;;;6.40;3.40;;;18.60;57.70;;;;;;5048407;28;20443;-67
2022/12/09 07:56:34;;;;;;;5.78;3.30;;;18.60;57.70;;;;;;5048983;28;20436;-68
2022/12/09 07:59:00;;;;;;;5.93;3.20;;;18.60;57.70;;;;;;5040203;28;20021;-69
2022/12/09 08:01:27;;;;;;;5.93;3.42;;;18.60;57.70;;;;;;5051526;28;20147;-68
2022/12/09 08:03:53;;;;;;;6.45;3.33;;;18.60;57.70;;;;;;5053003;28;20485;-68
2022/12/09 08:06:21;;;;;;;5.80;3.58;;;18.60;57.70;;;;;;5044526;28;20029;-68
2022/12/09 08:08:47;;;;;;;5.55;3.20;;;18.60;57.60;;;;;;5050768;28;20059;-68
2022/12/09 08:11:15;;;;;;;5.93;3.80;;;18.60;57.60;;;;;;5058054;28;20012;-68
2022/12/09 08:13:41;;;;;;;5.00;3.28;;;18.60;57.60;;;;;;5056225;28;20025;-68
2022/12/09 08:16:09;;;;;;;6.50;3.75;;;18.60;57.60;;;;;;5042598;28;20029;-69
2022/12/09 08:18:35;;;;;;;5.68;3.40;;;18.60;57.60;;;;;;5055159;28;20040;-68
2022/12/09 08:21:10;;;;;;;6.47;3.70;;;18.60;57.60;;;;;;5035177;28;20022;-68
2022/12/09 08:23:36;;;;;;;5.22;3.13;;;18.60;58.10;;;;;;5049894;28;20029;-68
2022/12/09 08:26:02;;;;;;;5.32;3.33;;;18.60;57.60;;;;;;5052051;28;20020;-69
2022/12/09 08:28:29;;;;;;;5.32;3.17;;;18.60;57.60;;;;;;5058432;28;20082;-69
2022/12/09 08:30:54;;;;;;;6.00;3.75;;;18.60;57.60;;;;;;5050778;28;20033;-68
2022/12/09 08:33:20;;;;;;;5.38;3.50;;;18.60;57.60;;;;;;5053124;28;20036;-68
2022/12/09 08:35:46;;;;;;;5.68;3.47;;;18.60;57.60;;;;;;5052748;28;20411;-68
2022/12/09 08:38:11;;;;;;;5.68;3.30;;;18.60;57.60;;;;;;5052671;28;20036;-68
2022/12/09 08:40:38;;;;;;;5.82;3.45;;;18.60;57.50;;;;;;5048215;28;20043;-68
2022/12/09 08:43:05;;;;;;;4.95;3.13;;;18.50;57.50;;;;;;5054555;28;20036;-68
2022/12/09 08:45:40;;;;;;;4.95;3.35;;;18.60;57.60;;;;;;5055572;28;20029;-68
2022/12/09 08:48:07;;;;;;;5.78;3.33;;;18.60;57.50;;;;;;5054047;28;20021;-69
2022/12/09 08:50:33;;;;;;;4.50;3.00;;;18.60;57.50;;;;;;5044292;28;20430;-68
2022/12/09 08:52:59;;;;;;;5.18;3.40;;;18.60;57.50;;;;;;5046525;28;20028;-69
2022/12/09 08:55:25;;;;;;;5.97;3.33;;;18.60;57.50;;;;;;5046826;28;20100;-69
2022/12/09 08:57:51;;;;;;;5.40;3.17;;;18.60;57.50;;;;;;5046600;28;20083;-68
2022/12/09 09:00:18;;;;;;;6.10;3.45;;;18.60;57.50;;;;;;5057546;28;20029;-68
2022/12/09 09:02:44;;;;;;;5.80;3.40;;;18.60;57.50;;;;;;5050805;28;20025;-69
2022/12/09 09:05:10;;;;;;;5.43;3.42;;;18.60;57.50;;;;;;5050888;28;20041;-68
2022/12/09 09:07:36;;;;;;;4.85;3.03;;;18.60;57.50;;;;;;5051693;28;20105;-69
2022/12/09 09:10:02;;;;;;;4.90;3.17;;;18.60;57.50;;;;;;5034947;28;20044;-69
2022/12/09 09:12:28;;;;;;;4.70;3.03;;;18.60;57.50;;;;;;5049743;28;20032;-69
2022/12/09 09:14:54;;;;;;;5.30;3.33;;;18.60;57.50;;;;;;5045452;28;20025;-69
2022/12/09 09:17:20;;;;;;;4.57;3.20;;;18.50;57.40;;;;;;5046357;28;20025;-69
2022/12/09 09:19:46;;;;;;;4.30;3.05;;;18.60;57.40;;;;;;5038882;28;20025;-69
2022/12/09 09:22:12;;;;;;;5.10;3.25;;;18.60;57.50;;;;;;5052772;28;20036;-69
2022/12/09 09:24:38;;;;;;;6.15;3.42;;;18.60;57.40;;;;;;5036449;28;20448;-68
2022/12/09 09:27:03;;;;;;;5.57;3.05;;;18.50;57.40;;;;;;5044044;28;20035;-69
2022/12/09 09:29:29;;;;;;;6.00;3.13;;;18.60;57.40;;;;;;5056888;28;20020;-69
2022/12/09 09:31:56;;;;;;;5.25;3.17;;;18.50;57.40;;;;;;5062114;28;20114;-68
2022/12/09 09:34:23;;;;;;;4.55;2.92;;;18.60;57.40;;;;;;5047949;28;20018;-69
2022/12/09 09:36:50;;;;;;;4.43;3.08;;;18.60;57.40;;;;;;5050101;28;20043;-69
2022/12/09 09:39:16;;;;;;;5.07;2.97;;;18.50;57.40;;;;;;5054245;28;20385;-70
2022/12/09 09:41:56;;;;;;;4.20;2.55;;;18.60;57.40;;;;;;5049780;28;20025;-69
2022/12/09 09:44:43;;;;;;;4.57;3.08;;;18.50;57.30;;;;;;5050065;28;20051;-69
2022/12/09 09:47:31;;;;;;;4.50;3.05;;;18.60;57.40;;;;;;5045461;28;20045;-69
2022/12/09 09:50:15;;;;;;;4.80;2.97;;;18.50;57.30;;;;;;5056796;28;20020;-70
2022/12/09 09:52:41;;;;;;;5.28;3.03;;;18.50;57.40;;;;;;5055359;28;20076;-69
2022/12/09 09:55:28;;;;;;;5.20;3.10;;;18.60;57.40;;;;;;5056726;28;20028;-69
2022/12/09 09:58:14;;;;;;;4.47;2.95;;;18.60;57.30;;;;;;5048757;28;20416;-69
2022/12/09 10:01:11;;;;;;;5.05;3.20;;;18.50;57.30;;;;;;5030080;28;20504;-69
2022/12/09 10:04:01;;;;;;;5.47;3.08;;;18.50;57.30;;;;;;5054308;28;20480;-69
2022/12/09 10:06:59;;;;;;;4.40;3.10;;;18.50;57.30;;;;;;5058291;28;20067;-69
2022/12/09 10:09:45;;;;;;;4.88;3.10;;;18.50;57.30;;;;;;5052310;28;20029;-69
2022/12/09 10:12:25;;;;;;;4.35;2.67;;;18.50;57.30;;;;;;5057328;28;20029;-69
2022/12/09 10:15:17;;;;;;;4.78;3.10;;;18.50;57.30;;;;;;5029542;28;20116;-69
2022/12/09 10:17:49;;;;;;;4.53;2.70;;;18.50;57.30;;;;;;5056248;28;20158;-69
2022/12/09 10:20:18;;;;;;;4.20;2.83;;;18.50;57.30;;;;;;5058659;28;20147;-70
2022/12/09 10:22:54;;;;;;;4.72;3.22;;;18.50;57.30;;;;;;5053998;28;20503;-69
2022/12/09 10:25:23;;;;;;;4.80;2.85;;;18.50;57.30;;;;;;5061318;28;20456;-69
2022/12/09 10:27:52;;;;;;;5.95;3.38;;;18.50;57.30;;;;;;5056503;28;20408;-69
2022/12/09 10:30:18;;;;;;;4.43;2.90;;;18.50;57.30;;;;;;5045260;28;20033;-70
2022/12/09 10:32:44;;;;;;;4.25;2.78;;;18.50;57.30;;;;;;5052803;28;20029;-70
2022/12/09 10:35:15;;;;;;;3.85;2.60;;;18.50;57.30;;;;;;5056229;28;20517;-69
2022/12/09 10:37:40;;;;;;;4.70;3.13;;;18.50;57.20;;;;;;5056814;28;20025;-69
2022/12/09 10:40:09;;;;;;;4.80;2.72;;;18.50;57.20;;;;;;5055735;28;20025;-70
2022/12/09 10:45:30;;;;;;;4.07;2.70;;;18.50;57.20;;;;;;5056690;28;20145;-69
2022/12/09 10:47:56;;;;;;;4.03;2.85;;;18.50;57.20;;;;;;5057351;28;20032;-69
2022/12/09 10:50:35;;;;;;;4.15;2.85;;;18.50;57.20;;;;;;5048118;28;20055;-69
2022/12/09 10:53:13;;;;;;;4.60;3.00;;;18.50;57.20;;;;;;5047128;28;20468;-70
2022/12/09 10:55:50;;;;;;;4.10;3.00;;;18.50;57.20;;;;;;5062707;28;20064;-69
2022/12/09 10:58:22;;;;;;;4.75;2.65;;;18.50;57.20;;;;;;5051791;28;20108;-70
2022/12/09 11:01:09;;;;;;;4.32;2.60;;;18.50;57.20;;;;;;5055453;28;20037;-69
2022/12/09 11:03:52;;;;;;;4.40;2.90;;;18.50;57.10;;;;;;5055377;28;20357;-69
2022/12/09 11:06:26;;;;;;;4.25;3.00;;;18.50;57.10;;;;;;5050996;28;20112;-70
2022/12/09 11:08:55;;;;;;;4.30;2.83;;;18.50;57.10;;;;;;5045328;28;20654;-69
2022/12/09 11:11:47;;;;;;;3.80;2.58;;;18.50;57.20;;;;;;5044775;28;20025;-69
2022/12/09 11:14:21;;;;;;;4.47;2.88;;;18.50;57.10;;;;;;5055436;28;20037;-70
2022/12/09 11:16:52;;;;;;;5.35;2.88;;;18.50;57.10;;;;;;5053126;28;20095;-69
2022/12/09 11:19:37;;;;;;;4.32;2.90;;;18.50;57.20;;;;;;5043406;28;20056;-69
2022/12/09 11:22:41;;;;;;;4.50;2.80;;;18.50;57.20;;;;;;5063735;28;20111;-69
2022/12/09 11:25:29;;;;;;;4.93;2.72;;;18.50;57.10;;;;;;5035761;28;20449;-69
2022/12/09 11:28:14;;;;;;;5.30;2.83;;;18.50;57.10;;;;;;5048242;28;20479;-69
2022/12/09 11:30:50;;;;;;;4.35;2.92;;;18.50;57.10;;;;;;5048729;28;20477;-69
2022/12/09 11:33:39;;;;;;;5.75;2.75;;;18.50;57.10;;;;;;5049744;28;20025;-69
2022/12/09 11:36:22;;;;;;;4.57;2.87;;;18.50;57.20;;;;;;5054320;28;20033;-69
2022/12/09 11:38:51;;;;;;;4.50;2.58;;;18.40;57.10;;;;;;5060298;28;20078;-70
2022/12/09 11:44:24;;;;;;;4.95;2.67;;;18.50;57.10;;;;;;5054287;28;20047;-69
2022/12/09 11:46:59;;;;;;;4.20;2.75;;;18.50;57.10;;;;;;5050407;28;20525;-70
2022/12/09 11:49:26;;;;;;;4.22;2.70;;;18.50;57.10;;;;;;5045469;28;20070;-69
2022/12/09 11:52:21;;;;;;;4.28;2.83;;;18.50;57.10;;;;;;5053365;28;20040;-69
2022/12/09 11:55:03;;;;;;;4.30;2.60;;;18.40;57.10;;;;;;5040082;28;20439;-70
2022/12/09 11:57:49;;;;;;;4.50;2.63;;;18.50;57.10;;;;;;5054479;28;20025;-69
2022/12/09 12:00:25;;;;;;;3.65;2.45;;;18.50;57.10;;;;;;5048813;28;20049;-69
2022/12/09 12:03:17;;;;;;;3.58;2.67;;;18.50;57.10;;;;;;5055268;28;20028;-69
2022/12/09 12:05:47;;;;;;;3.75;2.50;;;18.40;57.10;;;;;;5050129;28;20033;-69
2022/12/09 12:08:43;;;;;;;3.95;2.65;;;18.40;57.10;;;;;;5047551;28;20051;-69
2022/12/09 12:11:11;;;;;;;4.25;2.60;;;18.50;57.10;;;;;;5048259;28;20075;-69
2022/12/09 12:13:41;;;;;;;3.75;2.35;;;18.40;57.10;;;;;;5038550;28;20025;-69
2022/12/09 12:16:09;;;;;;;3.85;2.70;;;18.50;57.10;;;;;;5063862;28;20035;-69
2022/12/09 12:18:50;;;;;;;4.10;2.40;;;18.40;57.00;;;;;;5048551;28;20027;-69
2022/12/09 12:21:33;;;;;;;3.65;2.50;;;18.40;57.00;;;;;;5051424;28;20021;-69
2022/12/09 12:24:15;;;;;;;3.53;2.55;;;18.40;57.00;;;;;;5044506;28;20032;-69
2022/12/09 12:26:48;;;;;;;3.88;2.47;;;18.40;57.00;;;;;;5054668;28;20017;-69
2022/12/09 12:29:35;;;;;;;4.57;2.40;;;18.40;57.00;;;;;;5051877;28;20541;-69
2022/12/09 12:32:23;;;;;;;4.07;2.75;;;18.40;57.00;;;;;;5051211;28;20025;-70
2022/12/09 12:35:15;;;;;;;3.42;2.30;;;18.40;57.00;;;;;;5032229;28;20024;-68
2022/12/09 12:38:09;;;;;;;3.63;2.60;;;18.40;57.00;;;;;;5033936;28;20515;-68
2022/12/09 12:40:35;;;;;;;3.97;2.65;;;18.40;57.00;;;;;;5041751;28;20363;-69
2022/12/09 12:46:26;;;;;;;3.65;2.42;;;18.40;57.00;;;;;;5054749;28;20108;-70
2022/12/09 12:49:19;;;;;;;3.88;2.65;;;18.40;57.00;;;;;;5044504;28;20028;-70
2022/12/09 12:51:58;;;;;;;4.00;2.45;;;18.40;57.00;;;;;;5050421;28;20029;-70
2022/12/09 12:54:27;;;;;;;;;;;18.40;57.00;;;;;;5044857;28;20028;-69
2022/12/09 12:56:55;;;;;;;3.78;2.50;;;18.40;57.00;;;;;;5048715;28;19954;-70
2022/12/09 12:59:36;;;;;;;3.78;2.42;;;18.40;57.00;;;;;;5056579;28;20651;-70
2022/12/09 13:02:26;;;;;;;3.53;2.40;;;18.40;57.00;;;;;;5053019;28;20371;-71
2022/12/09 13:04:58;;;;;;;3.40;2.40;;;18.40;57.00;;;;;;5046466;28;20099;-70
2022/12/09 13:07:44;;;;;;;3.70;2.60;;;18.40;57.00;;;;;;5040546;28;20037;-70
2022/12/09 13:10:19;;;;;;;3.92;2.40;;;18.40;57.00;;;;;;5050938;28;20022;-70
2022/12/09 13:12:55;;;;;;;3.85;2.38;;;18.40;57.00;;;;;;5049494;28;20079;-69
2022/12/09 13:15:50;;;;;;;4.15;2.53;;;18.40;57.00;;;;;;5054219;28;20025;-70